sensor_id;sensor_type;location;lat;lon;timestamp;P1;durP1;ratioP1;P2;durP2;ratioP2
3095;SDS011;1558;42.700;23.360;2023-02-11T00:02:18;31.27;;;21.10;;
3095;SDS011;1558;42.700;23.360;2023-02-11T00:04:46;28.30;;;19.07;;
3095;SDS011;1558;42.700;23.360;2023-02-11T00:07:14;32.90;;;20.57;;
3095;SDS011;1558;42.700;23.360;2023-02-11T00:09:42;28.93;;;20.23;;
3095;SDS011;1558;42.700;23.360;2023-02-11T00:12:10;29.97;;;18.83;;
3095;SDS011;1558;42.700;23.360;2023-02-11T00:14:39;27.37;;;19.20;;
3095;SDS011;1558;42.700;23.360;2023-02-11T00:17:09;27.40;;;19.50;;
3095;SDS011;1558;42.700;23.360;2023-02-11T00:19:36;29.53;;;19.80;;
3095;SDS011;1558;42.700;23.360;2023-02-11T00:22:05;28.70;;;18.27;;
3095;SDS011;1558;42.700;23.360;2023-02-11T00:24:34;26.57;;;18.77;;
3095;SDS011;1558;42.700;23.360;2023-02-11T00:27:02;24.57;;;17.53;;
3095;SDS011;1558;42.700;23.360;2023-02-11T00:29:30;26.77;;;18.50;;
3095;SDS011;1558;42.700;23.360;2023-02-11T00:31:58;26.43;;;17.87;;
3095;SDS011;1558;42.700;23.360;2023-02-11T00:34:31;22.33;;;14.73;;
3095;SDS011;1558;42.700;23.360;2023-02-11T00:37:00;22.07;;;15.00;;
3095;SDS011;1558;42.700;23.360;2023-02-11T00:39:28;22.80;;;15.87;;
3095;SDS011;1558;42.700;23.360;2023-02-11T00:41:57;24.47;;;17.80;;
3095;SDS011;1558;42.700;23.360;2023-02-11T00:44:24;21.80;;;16.57;;
3095;SDS011;1558;42.700;23.360;2023-02-11T00:46:52;22.47;;;15.47;;
3095;SDS011;1558;42.700;23.360;2023-02-11T00:49:20;20.17;;;14.13;;
3095;SDS011;1558;42.700;23.360;2023-02-11T00:51:50;19.93;;;13.07;;
3095;SDS011;1558;42.700;23.360;2023-02-11T00:54:17;20.03;;;13.27;;
3095;SDS011;1558;42.700;23.360;2023-02-11T00:56:45;16.07;;;12.07;;
3095;SDS011;1558;42.700;23.360;2023-02-11T00:59:13;18.03;;;13.43;;
3095;SDS011;1558;42.700;23.360;2023-02-11T01:01:41;20.73;;;13.67;;
3095;SDS011;1558;42.700;23.360;2023-02-11T01:04:09;18.83;;;13.60;;
3095;SDS011;1558;42.700;23.360;2023-02-11T01:06:37;17.80;;;12.87;;
3095;SDS011;1558;42.700;23.360;2023-02-11T01:09:06;17.60;;;13.27;;
3095;SDS011;1558;42.700;23.360;2023-02-11T01:11:34;19.13;;;13.03;;
3095;SDS011;1558;42.700;23.360;2023-02-11T01:14:02;23.10;;;13.87;;
3095;SDS011;1558;42.700;23.360;2023-02-11T01:16:30;17.63;;;12.90;;
3095;SDS011;1558;42.700;23.360;2023-02-11T01:18:58;17.60;;;13.37;;
3095;SDS011;1558;42.700;23.360;2023-02-11T01:21:28;17.30;;;13.03;;
3095;SDS011;1558;42.700;23.360;2023-02-11T01:23:56;18.63;;;13.63;;
3095;SDS011;1558;42.700;23.360;2023-02-11T01:26:25;18.70;;;13.00;;
3095;SDS011;1558;42.700;23.360;2023-02-11T01:28:53;19.77;;;15.10;;
3095;SDS011;1558;42.700;23.360;2023-02-11T01:31:22;26.60;;;17.47;;
3095;SDS011;1558;42.700;23.360;2023-02-11T01:33:50;24.50;;;18.17;;
3095;SDS011;1558;42.700;23.360;2023-02-11T01:36:18;25.47;;;19.23;;
3095;SDS011;1558;42.700;23.360;2023-02-11T01:38:46;24.97;;;18.33;;
3095;SDS011;1558;42.700;23.360;2023-02-11T01:41:15;25.10;;;18.00;;
3095;SDS011;1558;42.700;23.360;2023-02-11T01:43:46;27.77;;;19.07;;
3095;SDS011;1558;42.700;23.360;2023-02-11T01:49:01;28.70;;;19.93;;
3095;SDS011;1558;42.700;23.360;2023-02-11T01:51:33;27.50;;;18.90;;
3095;SDS011;1558;42.700;23.360;2023-02-11T01:54:05;29.57;;;20.27;;
3095;SDS011;1558;42.700;23.360;2023-02-11T01:56:54;28.93;;;20.40;;
3095;SDS011;1558;42.700;23.360;2023-02-11T01:59:44;30.20;;;20.07;;
3095;SDS011;1558;42.700;23.360;2023-02-11T02:02:15;28.53;;;20.20;;
3095;SDS011;1558;42.700;23.360;2023-02-11T02:04:48;26.43;;;19.07;;
3095;SDS011;1558;42.700;23.360;2023-02-11T02:07:25;31.40;;;20.00;;
3095;SDS011;1558;42.700;23.360;2023-02-11T02:10:00;29.93;;;19.53;;
3095;SDS011;1558;42.700;23.360;2023-02-11T02:12:32;30.40;;;19.23;;
3095;SDS011;1558;42.700;23.360;2023-02-11T02:15:21;26.93;;;18.80;;
3095;SDS011;1558;42.700;23.360;2023-02-11T02:17:56;27.83;;;18.43;;
3095;SDS011;1558;42.700;23.360;2023-02-11T02:20:36;25.13;;;18.60;;
3095;SDS011;1558;42.700;23.360;2023-02-11T02:23:34;30.03;;;18.83;;
3095;SDS011;1558;42.700;23.360;2023-02-11T02:29:18;27.90;;;19.93;;
3095;SDS011;1558;42.700;23.360;2023-02-11T02:32:21;25.47;;;18.77;;
3095;SDS011;1558;42.700;23.360;2023-02-11T02:35:00;28.20;;;19.02;;
3095;SDS011;1558;42.700;23.360;2023-02-11T02:37:36;24.27;;;17.85;;
3095;SDS011;1558;42.700;23.360;2023-02-11T02:40:10;27.30;;;18.40;;
3095;SDS011;1558;42.700;23.360;2023-02-11T02:42:43;30.50;;;19.00;;
3095;SDS011;1558;42.700;23.360;2023-02-11T02:45:12;27.20;;;19.37;;
3095;SDS011;1558;42.700;23.360;2023-02-11T02:47:42;26.23;;;19.00;;
3095;SDS011;1558;42.700;23.360;2023-02-11T02:50:10;28.07;;;18.43;;
3095;SDS011;1558;42.700;23.360;2023-02-11T02:52:42;24.13;;;17.97;;
3095;SDS011;1558;42.700;23.360;2023-02-11T02:55:23;26.27;;;17.63;;
3095;SDS011;1558;42.700;23.360;2023-02-11T02:58:13;23.63;;;17.02;;
3095;SDS011;1558;42.700;23.360;2023-02-11T03:01:02;25.52;;;17.00;;
3095;SDS011;1558;42.700;23.360;2023-02-11T03:03:40;23.02;;;15.27;;
3095;SDS011;1558;42.700;23.360;2023-02-11T03:06:15;23.75;;;16.15;;
3095;SDS011;1558;42.700;23.360;2023-02-11T03:08:52;22.05;;;15.23;;
3095;SDS011;1558;42.700;23.360;2023-02-11T03:11:24;19.83;;;13.80;;
3095;SDS011;1558;42.700;23.360;2023-02-11T03:13:54;19.60;;;14.30;;
3095;SDS011;1558;42.700;23.360;2023-02-11T03:16:24;19.88;;;13.23;;
3095;SDS011;1558;42.700;23.360;2023-02-11T03:18:56;20.33;;;14.20;;
3095;SDS011;1558;42.700;23.360;2023-02-11T03:21:29;19.58;;;13.77;;
3095;SDS011;1558;42.700;23.360;2023-02-11T03:24:01;20.58;;;13.82;;
3095;SDS011;1558;42.700;23.360;2023-02-11T03:26:33;20.50;;;14.50;;
3095;SDS011;1558;42.700;23.360;2023-02-11T03:29:07;18.05;;;13.75;;
3095;SDS011;1558;42.700;23.360;2023-02-11T03:31:43;20.58;;;15.00;;
3095;SDS011;1558;42.700;23.360;2023-02-11T03:34:22;20.98;;;14.02;;
3095;SDS011;1558;42.700;23.360;2023-02-11T03:36:58;19.75;;;14.07;;
3095;SDS011;1558;42.700;23.360;2023-02-11T03:39:29;19.08;;;13.30;;
3095;SDS011;1558;42.700;23.360;2023-02-11T03:42:02;20.67;;;14.75;;
3095;SDS011;1558;42.700;23.360;2023-02-11T03:44:33;18.67;;;13.82;;
3095;SDS011;1558;42.700;23.360;2023-02-11T03:47:06;27.05;;;19.17;;
3095;SDS011;1558;42.700;23.360;2023-02-11T03:49:38;24.98;;;15.85;;
3095;SDS011;1558;42.700;23.360;2023-02-11T03:52:08;26.70;;;18.80;;
3095;SDS011;1558;42.700;23.360;2023-02-11T03:54:39;21.83;;;16.20;;
3095;SDS011;1558;42.700;23.360;2023-02-11T03:57:09;25.92;;;19.00;;
3095;SDS011;1558;42.700;23.360;2023-02-11T03:59:51;28.75;;;18.15;;
3095;SDS011;1558;42.700;23.360;2023-02-11T04:02:20;28.23;;;17.65;;
3095;SDS011;1558;42.700;23.360;2023-02-11T04:04:51;25.73;;;17.95;;
3095;SDS011;1558;42.700;23.360;2023-02-11T04:07:19;27.02;;;17.85;;
3095;SDS011;1558;42.700;23.360;2023-02-11T04:09:47;21.23;;;15.82;;
3095;SDS011;1558;42.700;23.360;2023-02-11T04:12:15;23.35;;;15.98;;
3095;SDS011;1558;42.700;23.360;2023-02-11T04:14:43;25.50;;;17.45;;
3095;SDS011;1558;42.700;23.360;2023-02-11T04:17:11;27.65;;;17.48;;
3095;SDS011;1558;42.700;23.360;2023-02-11T04:19:39;27.80;;;19.05;;
3095;SDS011;1558;42.700;23.360;2023-02-11T04:22:09;26.33;;;18.92;;
3095;SDS011;1558;42.700;23.360;2023-02-11T04:24:37;27.67;;;19.17;;
3095;SDS011;1558;42.700;23.360;2023-02-11T04:27:05;27.73;;;18.33;;
3095;SDS011;1558;42.700;23.360;2023-02-11T04:29:33;28.83;;;20.75;;
3095;SDS011;1558;42.700;23.360;2023-02-11T04:32:01;34.70;;;24.60;;
3095;SDS011;1558;42.700;23.360;2023-02-11T04:34:29;30.30;;;20.75;;
3095;SDS011;1558;42.700;23.360;2023-02-11T04:36:58;31.67;;;20.33;;
3095;SDS011;1558;42.700;23.360;2023-02-11T04:39:27;29.38;;;19.50;;
3095;SDS011;1558;42.700;23.360;2023-02-11T04:41:55;28.08;;;19.60;;
3095;SDS011;1558;42.700;23.360;2023-02-11T04:44:23;26.67;;;19.02;;
3095;SDS011;1558;42.700;23.360;2023-02-11T04:46:51;24.20;;;16.50;;
3095;SDS011;1558;42.700;23.360;2023-02-11T04:49:19;19.73;;;13.95;;
3095;SDS011;1558;42.700;23.360;2023-02-11T04:51:47;19.60;;;12.85;;
3095;SDS011;1558;42.700;23.360;2023-02-11T04:54:15;19.70;;;13.85;;
3095;SDS011;1558;42.700;23.360;2023-02-11T04:56:45;20.30;;;14.63;;
3095;SDS011;1558;42.700;23.360;2023-02-11T04:59:13;24.55;;;15.70;;
3095;SDS011;1558;42.700;23.360;2023-02-11T05:01:41;24.38;;;16.90;;
3095;SDS011;1558;42.700;23.360;2023-02-11T05:04:09;23.42;;;17.23;;
3095;SDS011;1558;42.700;23.360;2023-02-11T05:06:37;26.77;;;17.70;;
3095;SDS011;1558;42.700;23.360;2023-02-11T05:09:05;21.65;;;15.80;;
3095;SDS011;1558;42.700;23.360;2023-02-11T05:11:34;25.10;;;18.00;;
3095;SDS011;1558;42.700;23.360;2023-02-11T05:14:06;25.25;;;16.30;;
3095;SDS011;1558;42.700;23.360;2023-02-11T05:16:34;22.50;;;16.08;;
3095;SDS011;1558;42.700;23.360;2023-02-11T05:19:02;31.08;;;18.83;;
3095;SDS011;1558;42.700;23.360;2023-02-11T05:21:30;27.10;;;18.75;;
3095;SDS011;1558;42.700;23.360;2023-02-11T05:23:58;26.23;;;17.88;;
3095;SDS011;1558;42.700;23.360;2023-02-11T05:26:26;26.88;;;19.38;;
3095;SDS011;1558;42.700;23.360;2023-02-11T05:28:54;29.33;;;18.95;;
3095;SDS011;1558;42.700;23.360;2023-02-11T05:31:24;27.33;;;19.02;;
3095;SDS011;1558;42.700;23.360;2023-02-11T05:33:52;30.50;;;19.90;;
3095;SDS011;1558;42.700;23.360;2023-02-11T05:36:19;39.17;;;28.25;;
3095;SDS011;1558;42.700;23.360;2023-02-11T05:38:47;45.13;;;28.98;;
3095;SDS011;1558;42.700;23.360;2023-02-11T05:41:16;45.08;;;28.73;;
3095;SDS011;1558;42.700;23.360;2023-02-11T05:43:46;44.75;;;31.08;;
3095;SDS011;1558;42.700;23.360;2023-02-11T05:46:15;44.38;;;31.88;;
3095;SDS011;1558;42.700;23.360;2023-02-11T05:48:45;42.58;;;31.35;;
3095;SDS011;1558;42.700;23.360;2023-02-11T05:51:13;42.80;;;31.55;;
3095;SDS011;1558;42.700;23.360;2023-02-11T05:53:41;50.55;;;35.40;;
3095;SDS011;1558;42.700;23.360;2023-02-11T05:56:09;45.40;;;33.27;;
3095;SDS011;1558;42.700;23.360;2023-02-11T05:58:37;45.67;;;32.57;;
3095;SDS011;1558;42.700;23.360;2023-02-11T06:01:05;44.10;;;29.57;;
3095;SDS011;1558;42.700;23.360;2023-02-11T06:03:33;49.70;;;32.07;;
3095;SDS011;1558;42.700;23.360;2023-02-11T06:06:03;45.40;;;30.67;;
3095;SDS011;1558;42.700;23.360;2023-02-11T06:08:31;42.83;;;30.23;;
3095;SDS011;1558;42.700;23.360;2023-02-11T06:10:59;44.20;;;30.60;;
3095;SDS011;1558;42.700;23.360;2023-02-11T06:13:27;36.00;;;25.03;;
3095;SDS011;1558;42.700;23.360;2023-02-11T06:15:55;40.20;;;24.93;;
3095;SDS011;1558;42.700;23.360;2023-02-11T06:18:23;38.07;;;25.87;;
3095;SDS011;1558;42.700;23.360;2023-02-11T06:20:51;38.80;;;26.53;;
3095;SDS011;1558;42.700;23.360;2023-02-11T06:23:21;32.43;;;22.83;;
3095;SDS011;1558;42.700;23.360;2023-02-11T06:25:49;29.30;;;20.30;;
3095;SDS011;1558;42.700;23.360;2023-02-11T06:28:18;26.07;;;19.53;;
3095;SDS011;1558;42.700;23.360;2023-02-11T06:30:46;29.70;;;20.70;;
3095;SDS011;1558;42.700;23.360;2023-02-11T06:33:14;26.70;;;21.20;;
3095;SDS011;1558;42.700;23.360;2023-02-11T06:35:42;26.40;;;20.40;;
3095;SDS011;1558;42.700;23.360;2023-02-11T06:38:10;32.80;;;22.40;;
3095;SDS011;1558;42.700;23.360;2023-02-11T06:40:39;25.30;;;18.67;;
3095;SDS011;1558;42.700;23.360;2023-02-11T06:43:07;28.17;;;18.60;;
3095;SDS011;1558;42.700;23.360;2023-02-11T06:45:35;24.87;;;18.27;;
3095;SDS011;1558;42.700;23.360;2023-02-11T06:48:03;27.87;;;18.47;;
3095;SDS011;1558;42.700;23.360;2023-02-11T06:50:31;28.93;;;20.43;;
3095;SDS011;1558;42.700;23.360;2023-02-11T06:52:59;26.83;;;20.80;;
3095;SDS011;1558;42.700;23.360;2023-02-11T06:55:27;28.20;;;20.50;;
3095;SDS011;1558;42.700;23.360;2023-02-11T06:57:56;31.27;;;21.30;;
3095;SDS011;1558;42.700;23.360;2023-02-11T07:00:24;33.30;;;24.10;;
3095;SDS011;1558;42.700;23.360;2023-02-11T07:02:54;39.47;;;26.47;;
3095;SDS011;1558;42.700;23.360;2023-02-11T07:05:22;36.63;;;26.37;;
3095;SDS011;1558;42.700;23.360;2023-02-11T07:07:50;41.80;;;30.13;;
3095;SDS011;1558;42.700;23.360;2023-02-11T07:10:18;31.63;;;24.57;;
3095;SDS011;1558;42.700;23.360;2023-02-11T07:12:46;30.17;;;23.30;;
3095;SDS011;1558;42.700;23.360;2023-02-11T07:15:16;28.77;;;24.17;;
3095;SDS011;1558;42.700;23.360;2023-02-11T07:17:44;29.33;;;23.93;;
3095;SDS011;1558;42.700;23.360;2023-02-11T07:20:12;31.40;;;23.23;;
3095;SDS011;1558;42.700;23.360;2023-02-11T07:22:40;27.90;;;22.93;;
3095;SDS011;1558;42.700;23.360;2023-02-11T07:25:08;36.73;;;24.07;;
3095;SDS011;1558;42.700;23.360;2023-02-11T07:27:36;29.67;;;23.63;;
3095;SDS011;1558;42.700;23.360;2023-02-11T07:30:05;30.57;;;23.33;;
3095;SDS011;1558;42.700;23.360;2023-02-11T07:32:34;33.23;;;24.33;;
3095;SDS011;1558;42.700;23.360;2023-02-11T07:35:03;33.10;;;23.57;;
3095;SDS011;1558;42.700;23.360;2023-02-11T07:37:32;30.47;;;23.73;;
3095;SDS011;1558;42.700;23.360;2023-02-11T07:40:00;33.30;;;24.33;;
3095;SDS011;1558;42.700;23.360;2023-02-11T07:42:28;34.00;;;26.90;;
3095;SDS011;1558;42.700;23.360;2023-02-11T07:44:56;50.67;;;28.17;;
3095;SDS011;1558;42.700;23.360;2023-02-11T07:47:24;30.10;;;24.27;;
3095;SDS011;1558;42.700;23.360;2023-02-11T07:49:53;30.90;;;25.17;;
3095;SDS011;1558;42.700;23.360;2023-02-11T07:52:22;32.10;;;24.70;;
3095;SDS011;1558;42.700;23.360;2023-02-11T07:54:50;28.40;;;24.47;;
3095;SDS011;1558;42.700;23.360;2023-02-11T07:57:35;28.67;;;23.17;;
3095;SDS011;1558;42.700;23.360;2023-02-11T08:00:04;30.53;;;22.77;;
3095;SDS011;1558;42.700;23.360;2023-02-11T08:02:33;32.20;;;25.53;;
3095;SDS011;1558;42.700;23.360;2023-02-11T08:05:02;30.00;;;25.33;;
3095;SDS011;1558;42.700;23.360;2023-02-11T08:07:30;27.23;;;23.50;;
3095;SDS011;1558;42.700;23.360;2023-02-11T08:09:58;29.53;;;24.23;;
3095;SDS011;1558;42.700;23.360;2023-02-11T08:12:26;30.60;;;25.03;;
3095;SDS011;1558;42.700;23.360;2023-02-11T08:14:54;32.43;;;24.63;;
3095;SDS011;1558;42.700;23.360;2023-02-11T08:17:22;33.83;;;27.77;;
3095;SDS011;1558;42.700;23.360;2023-02-11T08:19:51;35.03;;;25.13;;
3095;SDS011;1558;42.700;23.360;2023-02-11T08:22:20;31.60;;;24.33;;
3095;SDS011;1558;42.700;23.360;2023-02-11T08:24:48;28.00;;;22.90;;
3095;SDS011;1558;42.700;23.360;2023-02-11T08:27:17;25.97;;;22.77;;
3095;SDS011;1558;42.700;23.360;2023-02-11T08:29:45;26.03;;;23.07;;
3095;SDS011;1558;42.700;23.360;2023-02-11T08:32:13;27.50;;;23.60;;
3095;SDS011;1558;42.700;23.360;2023-02-11T08:34:41;29.57;;;23.43;;
3095;SDS011;1558;42.700;23.360;2023-02-11T08:37:10;32.03;;;24.23;;
3095;SDS011;1558;42.700;23.360;2023-02-11T08:39:39;30.43;;;22.77;;
3095;SDS011;1558;42.700;23.360;2023-02-11T08:42:07;27.20;;;22.17;;
3095;SDS011;1558;42.700;23.360;2023-02-11T08:44:35;25.17;;;22.10;;
3095;SDS011;1558;42.700;23.360;2023-02-11T08:47:04;27.90;;;23.37;;
3095;SDS011;1558;42.700;23.360;2023-02-11T08:49:32;26.43;;;22.50;;
3095;SDS011;1558;42.700;23.360;2023-02-11T08:52:00;29.57;;;24.10;;
3095;SDS011;1558;42.700;23.360;2023-02-11T08:54:29;31.00;;;22.90;;
3095;SDS011;1558;42.700;23.360;2023-02-11T08:56:59;34.43;;;26.53;;
3095;SDS011;1558;42.700;23.360;2023-02-11T08:59:29;27.37;;;21.83;;
3095;SDS011;1558;42.700;23.360;2023-02-11T09:01:57;28.20;;;22.30;;
3095;SDS011;1558;42.700;23.360;2023-02-11T09:04:25;28.37;;;23.63;;
3095;SDS011;1558;42.700;23.360;2023-02-11T09:06:53;24.33;;;20.27;;
3095;SDS011;1558;42.700;23.360;2023-02-11T09:09:21;30.37;;;21.77;;
3095;SDS011;1558;42.700;23.360;2023-02-11T09:11:49;32.23;;;20.43;;
3095;SDS011;1558;42.700;23.360;2023-02-11T09:14:23;28.00;;;21.60;;
3095;SDS011;1558;42.700;23.360;2023-02-11T09:16:51;24.70;;;21.47;;
3095;SDS011;1558;42.700;23.360;2023-02-11T09:19:19;28.67;;;22.93;;
3095;SDS011;1558;42.700;23.360;2023-02-11T09:21:48;28.63;;;23.57;;
3095;SDS011;1558;42.700;23.360;2023-02-11T09:24:16;27.93;;;22.73;;
3095;SDS011;1558;42.700;23.360;2023-02-11T09:26:44;31.17;;;23.53;;
3095;SDS011;1558;42.700;23.360;2023-02-11T09:29:13;27.67;;;23.73;;
3095;SDS011;1558;42.700;23.360;2023-02-11T09:31:42;26.60;;;21.57;;
3095;SDS011;1558;42.700;23.360;2023-02-11T09:34:10;26.77;;;21.70;;
3095;SDS011;1558;42.700;23.360;2023-02-11T09:36:39;24.70;;;22.00;;
3095;SDS011;1558;42.700;23.360;2023-02-11T09:39:08;23.83;;;20.87;;
3095;SDS011;1558;42.700;23.360;2023-02-11T09:41:53;25.37;;;20.73;;
3095;SDS011;1558;42.700;23.360;2023-02-11T09:44:35;26.13;;;21.03;;
3095;SDS011;1558;42.700;23.360;2023-02-11T09:47:06;29.87;;;24.43;;
3095;SDS011;1558;42.700;23.360;2023-02-11T09:49:47;24.47;;;20.97;;
3095;SDS011;1558;42.700;23.360;2023-02-11T09:52:20;21.90;;;19.70;;
3095;SDS011;1558;42.700;23.360;2023-02-11T09:54:56;27.50;;;20.63;;
3095;SDS011;1558;42.700;23.360;2023-02-11T09:57:27;26.87;;;20.30;;
3095;SDS011;1558;42.700;23.360;2023-02-11T09:59:59;21.23;;;18.07;;
3095;SDS011;1558;42.700;23.360;2023-02-11T10:02:31;26.47;;;19.13;;
3095;SDS011;1558;42.700;23.360;2023-02-11T10:05:16;22.63;;;19.07;;
3095;SDS011;1558;42.700;23.360;2023-02-11T10:07:56;23.57;;;19.87;;
3095;SDS011;1558;42.700;23.360;2023-02-11T10:10:34;24.37;;;20.47;;
3095;SDS011;1558;42.700;23.360;2023-02-11T10:13:18;24.70;;;19.53;;
3095;SDS011;1558;42.700;23.360;2023-02-11T10:15:58;20.00;;;17.87;;
3095;SDS011;1558;42.700;23.360;2023-02-11T10:18:39;24.80;;;19.47;;
3095;SDS011;1558;42.700;23.360;2023-02-11T10:21:18;26.33;;;19.70;;
3095;SDS011;1558;42.700;23.360;2023-02-11T10:23:55;23.83;;;19.90;;
3095;SDS011;1558;42.700;23.360;2023-02-11T10:26:29;24.10;;;18.10;;
3095;SDS011;1558;42.700;23.360;2023-02-11T10:29:00;23.80;;;19.03;;
3095;SDS011;1558;42.700;23.360;2023-02-11T10:31:39;24.17;;;18.50;;
3095;SDS011;1558;42.700;23.360;2023-02-11T10:34:12;26.03;;;19.93;;
3095;SDS011;1558;42.700;23.360;2023-02-11T10:36:42;20.57;;;18.43;;
3095;SDS011;1558;42.700;23.360;2023-02-11T10:39:12;25.77;;;19.87;;
3095;SDS011;1558;42.700;23.360;2023-02-11T10:41:43;21.07;;;17.60;;
3095;SDS011;1558;42.700;23.360;2023-02-11T10:44:18;22.20;;;18.80;;
3095;SDS011;1558;42.700;23.360;2023-02-11T10:46:49;17.43;;;15.27;;
3095;SDS011;1558;42.700;23.360;2023-02-11T10:49:33;24.17;;;21.60;;
3095;SDS011;1558;42.700;23.360;2023-02-11T10:52:13;20.70;;;16.47;;
3095;SDS011;1558;42.700;23.360;2023-02-11T10:57:30;19.43;;;17.40;;
3095;SDS011;1558;42.700;23.360;2023-02-11T11:00:04;20.60;;;16.37;;
3095;SDS011;1558;42.700;23.360;2023-02-11T11:02:51;21.37;;;16.33;;
3095;SDS011;1558;42.700;23.360;2023-02-11T11:05:25;18.53;;;15.57;;
3095;SDS011;1558;42.700;23.360;2023-02-11T11:07:58;19.33;;;16.47;;
3095;SDS011;1558;42.700;23.360;2023-02-11T11:10:30;21.27;;;18.47;;
3095;SDS011;1558;42.700;23.360;2023-02-11T11:13:24;19.20;;;15.97;;
3095;SDS011;1558;42.700;23.360;2023-02-11T11:18:51;15.47;;;13.83;;
3095;SDS011;1558;42.700;23.360;2023-02-11T11:21:22;18.97;;;15.67;;
3095;SDS011;1558;42.700;23.360;2023-02-11T11:23:53;18.50;;;15.43;;
3095;SDS011;1558;42.700;23.360;2023-02-11T11:26:23;16.10;;;14.20;;
3095;SDS011;1558;42.700;23.360;2023-02-11T11:28:55;17.97;;;15.30;;
3095;SDS011;1558;42.700;23.360;2023-02-11T11:31:26;43.93;;;18.70;;
3095;SDS011;1558;42.700;23.360;2023-02-11T11:33:57;16.50;;;13.27;;
3095;SDS011;1558;42.700;23.360;2023-02-11T11:36:34;14.80;;;12.03;;
3095;SDS011;1558;42.700;23.360;2023-02-11T11:39:14;16.70;;;13.03;;
3095;SDS011;1558;42.700;23.360;2023-02-11T11:41:51;15.47;;;13.10;;
3095;SDS011;1558;42.700;23.360;2023-02-11T11:44:28;17.60;;;13.83;;
3095;SDS011;1558;42.700;23.360;2023-02-11T11:47:14;16.23;;;14.00;;
3095;SDS011;1558;42.700;23.360;2023-02-11T11:49:50;14.70;;;13.23;;
3095;SDS011;1558;42.700;23.360;2023-02-11T11:52:36;20.07;;;16.30;;
3095;SDS011;1558;42.700;23.360;2023-02-11T11:55:10;21.33;;;14.87;;
3095;SDS011;1558;42.700;23.360;2023-02-11T11:57:44;15.27;;;13.00;;
3095;SDS011;1558;42.700;23.360;2023-02-11T12:00:14;22.43;;;14.47;;
3095;SDS011;1558;42.700;23.360;2023-02-11T12:02:56;20.77;;;13.37;;
3095;SDS011;1558;42.700;23.360;2023-02-11T12:05:41;13.73;;;11.90;;
3095;SDS011;1558;42.700;23.360;2023-02-11T12:08:18;18.57;;;12.47;;
3095;SDS011;1558;42.700;23.360;2023-02-11T12:11:01;12.77;;;11.47;;
3095;SDS011;1558;42.700;23.360;2023-02-11T12:13:44;13.50;;;11.27;;
3095;SDS011;1558;42.700;23.360;2023-02-11T12:16:23;19.07;;;12.40;;
3095;SDS011;1558;42.700;23.360;2023-02-11T12:19:19;12.47;;;11.17;;
3095;SDS011;1558;42.700;23.360;2023-02-11T12:22:04;15.87;;;12.30;;
3095;SDS011;1558;42.700;23.360;2023-02-11T12:24:42;12.33;;;10.73;;
3095;SDS011;1558;42.700;23.360;2023-02-11T12:27:21;13.00;;;11.47;;
3095;SDS011;1558;42.700;23.360;2023-02-11T12:30:05;13.33;;;11.93;;
3095;SDS011;1558;42.700;23.360;2023-02-11T12:32:46;20.53;;;12.70;;
3095;SDS011;1558;42.700;23.360;2023-02-11T12:35:23;12.10;;;10.90;;
3095;SDS011;1558;42.700;23.360;2023-02-11T12:38:02;15.93;;;10.80;;
3095;SDS011;1558;42.700;23.360;2023-02-11T12:40:43;16.53;;;11.20;;
3095;SDS011;1558;42.700;23.360;2023-02-11T12:43:19;17.43;;;10.40;;
3095;SDS011;1558;42.700;23.360;2023-02-11T12:48:53;12.40;;;11.20;;
3095;SDS011;1558;42.700;23.360;2023-02-11T12:51:49;17.53;;;10.67;;
3095;SDS011;1558;42.700;23.360;2023-02-11T12:54:31;21.53;;;11.37;;
3095;SDS011;1558;42.700;23.360;2023-02-11T12:57:10;19.03;;;12.07;;
3095;SDS011;1558;42.700;23.360;2023-02-11T12:59:46;15.67;;;11.27;;
3095;SDS011;1558;42.700;23.360;2023-02-11T13:02:25;19.20;;;11.60;;
3095;SDS011;1558;42.700;23.360;2023-02-11T13:05:00;14.70;;;11.60;;
3095;SDS011;1558;42.700;23.360;2023-02-11T13:07:33;17.73;;;11.83;;
3095;SDS011;1558;42.700;23.360;2023-02-11T13:10:08;14.63;;;12.00;;
3095;SDS011;1558;42.700;23.360;2023-02-11T13:12:50;13.67;;;11.70;;
3095;SDS011;1558;42.700;23.360;2023-02-11T13:15:39;13.67;;;10.97;;
3095;SDS011;1558;42.700;23.360;2023-02-11T13:18:12;15.13;;;11.00;;
3095;SDS011;1558;42.700;23.360;2023-02-11T13:20:52;16.23;;;11.10;;
3095;SDS011;1558;42.700;23.360;2023-02-11T13:23:28;12.80;;;10.43;;
3095;SDS011;1558;42.700;23.360;2023-02-11T13:26:02;13.57;;;10.60;;
3095;SDS011;1558;42.700;23.360;2023-02-11T13:28:41;14.50;;;10.73;;
3095;SDS011;1558;42.700;23.360;2023-02-11T13:31:15;17.33;;;12.23;;
3095;SDS011;1558;42.700;23.360;2023-02-11T13:33:45;16.13;;;9.90;;
3095;SDS011;1558;42.700;23.360;2023-02-11T13:36:18;12.77;;;9.80;;
3095;SDS011;1558;42.700;23.360;2023-02-11T13:38:55;15.57;;;10.67;;
3095;SDS011;1558;42.700;23.360;2023-02-11T13:41:27;15.07;;;11.07;;
3095;SDS011;1558;42.700;23.360;2023-02-11T13:44:01;11.93;;;10.10;;
3095;SDS011;1558;42.700;23.360;2023-02-11T13:46:47;11.17;;;9.90;;
3095;SDS011;1558;42.700;23.360;2023-02-11T13:49:20;13.30;;;10.13;;
3095;SDS011;1558;42.700;23.360;2023-02-11T13:51:51;11.90;;;9.63;;
3095;SDS011;1558;42.700;23.360;2023-02-11T13:54:24;12.20;;;10.40;;
3095;SDS011;1558;42.700;23.360;2023-02-11T14:06:26;14.63;;;11.57;;
3095;SDS011;1558;42.700;23.360;2023-02-11T14:09:35;12.30;;;11.00;;
3095;SDS011;1558;42.700;23.360;2023-02-11T14:18:02;12.00;;;9.67;;
3095;SDS011;1558;42.700;23.360;2023-02-11T14:21:09;14.20;;;9.07;;
3095;SDS011;1558;42.700;23.360;2023-02-11T14:23:40;9.27;;;8.30;;
3095;SDS011;1558;42.700;23.360;2023-02-11T14:26:16;10.07;;;8.43;;
3095;SDS011;1558;42.700;23.360;2023-02-11T14:29:01;10.07;;;8.90;;
3095;SDS011;1558;42.700;23.360;2023-02-11T14:31:41;11.70;;;8.83;;
3095;SDS011;1558;42.700;23.360;2023-02-11T14:37:15;13.20;;;9.43;;
3095;SDS011;1558;42.700;23.360;2023-02-11T14:39:54;13.40;;;9.50;;
3095;SDS011;1558;42.700;23.360;2023-02-11T14:42:31;15.80;;;9.53;;
3095;SDS011;1558;42.700;23.360;2023-02-11T14:45:02;12.93;;;9.60;;
3095;SDS011;1558;42.700;23.360;2023-02-11T14:47:33;12.63;;;9.57;;
3095;SDS011;1558;42.700;23.360;2023-02-11T14:50:15;14.00;;;10.17;;
3095;SDS011;1558;42.700;23.360;2023-02-11T14:52:46;11.30;;;9.33;;
3095;SDS011;1558;42.700;23.360;2023-02-11T14:55:22;13.23;;;10.20;;
3095;SDS011;1558;42.700;23.360;2023-02-11T14:58:11;12.53;;;9.37;;
3095;SDS011;1558;42.700;23.360;2023-02-11T15:00:49;15.03;;;10.13;;
3095;SDS011;1558;42.700;23.360;2023-02-11T15:03:31;15.13;;;9.90;;
3095;SDS011;1558;42.700;23.360;2023-02-11T15:06:11;11.37;;;9.20;;
3095;SDS011;1558;42.700;23.360;2023-02-11T15:08:46;12.43;;;10.03;;
3095;SDS011;1558;42.700;23.360;2023-02-11T15:11:17;12.07;;;10.47;;
3095;SDS011;1558;42.700;23.360;2023-02-11T15:13:47;14.40;;;10.33;;
3095;SDS011;1558;42.700;23.360;2023-02-11T15:16:21;13.53;;;10.07;;
3095;SDS011;1558;42.700;23.360;2023-02-11T15:18:52;16.60;;;10.30;;
3095;SDS011;1558;42.700;23.360;2023-02-11T15:21:26;14.10;;;11.17;;
3095;SDS011;1558;42.700;23.360;2023-02-11T15:23:58;15.07;;;12.00;;
3095;SDS011;1558;42.700;23.360;2023-02-11T15:26:27;17.53;;;11.47;;
3095;SDS011;1558;42.700;23.360;2023-02-11T15:28:56;14.27;;;12.07;;
3095;SDS011;1558;42.700;23.360;2023-02-11T15:31:24;15.97;;;12.00;;
3095;SDS011;1558;42.700;23.360;2023-02-11T15:33:54;13.70;;;11.07;;
3095;SDS011;1558;42.700;23.360;2023-02-11T15:36:23;14.60;;;11.03;;
3095;SDS011;1558;42.700;23.360;2023-02-11T15:39:17;17.97;;;12.40;;
3095;SDS011;1558;42.700;23.360;2023-02-11T15:41:46;20.17;;;12.90;;